sensor_id;sensor_type;location;lat;lon;timestamp;temperature;humidity
14192;DHT22;7177;48.572;7.838;2022-08-01T00:00:26;23.80;90.00
14192;DHT22;7177;48.572;7.838;2022-08-01T00:02:52;23.80;90.00
14192;DHT22;7177;48.572;7.838;2022-08-01T00:05:17;23.70;90.20
14192;DHT22;7177;48.572;7.838;2022-08-01T00:07:43;23.60;91.00
14192;DHT22;7177;48.572;7.838;2022-08-01T00:10:11;23.40;91.20
14192;DHT22;7177;48.572;7.838;2022-08-01T00:12:37;23.40;91.60
14192;DHT22;7177;48.572;7.838;2022-08-01T00:15:04;23.40;91.80
14192;DHT22;7177;48.572;7.838;2022-08-01T00:17:31;23.30;92.30
14192;DHT22;7177;48.572;7.838;2022-08-01T00:19:56;23.30;92.70
14192;DHT22;7177;48.572;7.838;2022-08-01T00:22:22;23.20;92.80
14192;DHT22;7177;48.572;7.838;2022-08-01T00:24:47;23.30;93.40
14192;DHT22;7177;48.572;7.838;2022-08-01T00:27:13;23.20;93.80
14192;DHT22;7177;48.572;7.838;2022-08-01T00:29:38;23.20;93.80
14192;DHT22;7177;48.572;7.838;2022-08-01T00:32:04;23.20;94.40
14192;DHT22;7177;48.572;7.838;2022-08-01T00:34:29;23.10;94.80
14192;DHT22;7177;48.572;7.838;2022-08-01T00:36:55;23.10;95.00
14192;DHT22;7177;48.572;7.838;2022-08-01T00:39:20;23.00;95.90
14192;DHT22;7177;48.572;7.838;2022-08-01T00:41:46;23.00;96.10
14192;DHT22;7177;48.572;7.838;2022-08-01T00:44:11;23.00;96.70
14192;DHT22;7177;48.572;7.838;2022-08-01T00:46:37;23.00;97.00
14192;DHT22;7177;48.572;7.838;2022-08-01T00:49:03;23.00;97.30
14192;DHT22;7177;48.572;7.838;2022-08-01T00:51:28;23.00;98.20
14192;DHT22;7177;48.572;7.838;2022-08-01T00:53:54;22.90;98.40
14192;DHT22;7177;48.572;7.838;2022-08-01T00:56:21;22.90;98.50
14192;DHT22;7177;48.572;7.838;2022-08-01T00:58:49;22.90;99.30
14192;DHT22;7177;48.572;7.838;2022-08-01T01:01:14;22.90;99.70
14192;DHT22;7177;48.572;7.838;2022-08-01T01:03:40;22.80;99.90
14192;DHT22;7177;48.572;7.838;2022-08-01T01:08:46;22.70;99.90
14192;DHT22;7177;48.572;7.838;2022-08-01T01:11:40;22.60;99.90
14192;DHT22;7177;48.572;7.838;2022-08-01T01:14:13;22.60;99.90
14192;DHT22;7177;48.572;7.838;2022-08-01T01:16:42;22.70;99.90
14192;DHT22;7177;48.572;7.838;2022-08-01T01:19:15;22.70;99.90
14192;DHT22;7177;48.572;7.838;2022-08-01T01:25:04;22.60;99.90
14192;DHT22;7177;48.572;7.838;2022-08-01T01:27:50;22.60;99.90
14192;DHT22;7177;48.572;7.838;2022-08-01T01:30:17;22.60;99.90
14192;DHT22;7177;48.572;7.838;2022-08-01T01:32:45;22.50;99.90
14192;DHT22;7177;48.572;7.838;2022-08-01T01:35:21;22.60;99.90
14192;DHT22;7177;48.572;7.838;2022-08-01T01:37:49;22.50;99.90
14192;DHT22;7177;48.572;7.838;2022-08-01T01:40:17;22.40;99.90
14192;DHT22;7177;48.572;7.838;2022-08-01T01:42:43;22.30;99.90
14192;DHT22;7177;48.572;7.838;2022-08-01T01:45:09;22.20;99.90
14192;DHT22;7177;48.572;7.838;2022-08-01T01:47:36;22.00;99.90
14192;DHT22;7177;48.572;7.838;2022-08-01T01:50:03;21.90;99.90
14192;DHT22;7177;48.572;7.838;2022-08-01T01:52:30;21.80;99.90
14192;DHT22;7177;48.572;7.838;2022-08-01T01:54:57;21.70;99.90
14192;DHT22;7177;48.572;7.838;2022-08-01T01:57:24;21.60;99.90
14192;DHT22;7177;48.572;7.838;2022-08-01T01:59:51;21.40;99.90
14192;DHT22;7177;48.572;7.838;2022-08-01T02:02:17;21.30;99.90
14192;DHT22;7177;48.572;7.838;2022-08-01T02:04:46;21.10;99.90
14192;DHT22;7177;48.572;7.838;2022-08-01T02:07:16;21.10;99.90
14192;DHT22;7177;48.572;7.838;2022-08-01T02:09:43;21.10;99.90
14192;DHT22;7177;48.572;7.838;2022-08-01T02:12:12;21.00;99.90
14192;DHT22;7177;48.572;7.838;2022-08-01T02:17:11;20.80;99.90
14192;DHT22;7177;48.572;7.838;2022-08-01T02:19:37;20.60;99.90
14192;DHT22;7177;48.572;7.838;2022-08-01T02:22:11;20.50;99.90
14192;DHT22;7177;48.572;7.838;2022-08-01T02:24:44;20.30;99.90
14192;DHT22;7177;48.572;7.838;2022-08-01T02:27:15;20.20;99.90
14192;DHT22;7177;48.572;7.838;2022-08-01T02:30:00;20.10;99.90
14192;DHT22;7177;48.572;7.838;2022-08-01T02:32:31;20.00;99.90
14192;DHT22;7177;48.572;7.838;2022-08-01T02:34:57;19.90;99.90
14192;DHT22;7177;48.572;7.838;2022-08-01T02:37:26;19.80;99.90
14192;DHT22;7177;48.572;7.838;2022-08-01T02:39:54;19.80;99.90
14192;DHT22;7177;48.572;7.838;2022-08-01T02:42:20;19.80;99.90
14192;DHT22;7177;48.572;7.838;2022-08-01T02:44:48;19.80;99.90
14192;DHT22;7177;48.572;7.838;2022-08-01T02:47:15;19.90;99.90
14192;DHT22;7177;48.572;7.838;2022-08-01T02:49:45;19.90;99.90
14192;DHT22;7177;48.572;7.838;2022-08-01T02:52:13;19.90;99.90
14192;DHT22;7177;48.572;7.838;2022-08-01T02:54:40;19.90;99.90
14192;DHT22;7177;48.572;7.838;2022-08-01T02:57:08;19.90;99.90
14192;DHT22;7177;48.572;7.838;2022-08-01T02:59:37;19.90;99.90
14192;DHT22;7177;48.572;7.838;2022-08-01T03:02:04;19.90;99.90
14192;DHT22;7177;48.572;7.838;2022-08-01T03:04:33;19.80;99.90
14192;DHT22;7177;48.572;7.838;2022-08-01T03:07:00;19.80;99.90
14192;DHT22;7177;48.572;7.838;2022-08-01T03:09:27;19.80;99.90
14192;DHT22;7177;48.572;7.838;2022-08-01T03:11:57;19.80;99.90
14192;DHT22;7177;48.572;7.838;2022-08-01T03:14:25;19.80;99.90
14192;DHT22;7177;48.572;7.838;2022-08-01T03:16:52;19.90;99.90
14192;DHT22;7177;48.572;7.838;2022-08-01T03:19:20;19.90;99.90
14192;DHT22;7177;48.572;7.838;2022-08-01T03:21:49;19.90;99.90
14192;DHT22;7177;48.572;7.838;2022-08-01T03:24:16;19.90;99.90
14192;DHT22;7177;48.572;7.838;2022-08-01T03:26:42;19.90;99.90
14192;DHT22;7177;48.572;7.838;2022-08-01T03:29:12;19.90;99.90
14192;DHT22;7177;48.572;7.838;2022-08-01T03:31:40;19.90;99.90
14192;DHT22;7177;48.572;7.838;2022-08-01T03:34:09;19.80;99.90
14192;DHT22;7177;48.572;7.838;2022-08-01T03:39:11;19.50;99.90
14192;DHT22;7177;48.572;7.838;2022-08-01T03:41:40;19.40;99.90
14192;DHT22;7177;48.572;7.838;2022-08-01T03:44:15;19.30;99.90
14192;DHT22;7177;48.572;7.838;2022-08-01T03:46:50;19.20;99.90
14192;DHT22;7177;48.572;7.838;2022-08-01T03:49:22;19.10;99.90
14192;DHT22;7177;48.572;7.838;2022-08-01T03:51:49;19.00;99.90
14192;DHT22;7177;48.572;7.838;2022-08-01T03:54:22;19.00;99.90
14192;DHT22;7177;48.572;7.838;2022-08-01T03:56:50;19.00;99.90
14192;DHT22;7177;48.572;7.838;2022-08-01T03:59:17;19.00;99.90
14192;DHT22;7177;48.572;7.838;2022-08-01T04:01:45;19.00;99.90
14192;DHT22;7177;48.572;7.838;2022-08-01T04:04:11;19.00;99.90
14192;DHT22;7177;48.572;7.838;2022-08-01T04:06:38;18.90;99.90
14192;DHT22;7177;48.572;7.838;2022-08-01T04:09:04;19.00;99.90
14192;DHT22;7177;48.572;7.838;2022-08-01T04:11:30;19.00;99.90
14192;DHT22;7177;48.572;7.838;2022-08-01T04:13:56;19.00;99.90
14192;DHT22;7177;48.572;7.838;2022-08-01T04:16:22;19.00;99.90
14192;DHT22;7177;48.572;7.838;2022-08-01T04:18:48;19.10;99.90
14192;DHT22;7177;48.572;7.838;2022-08-01T04:21:17;19.10;99.90
14192;DHT22;7177;48.572;7.838;2022-08-01T04:23:44;19.10;99.90
14192;DHT22;7177;48.572;7.838;2022-08-01T04:26:12;19.00;99.90
14192;DHT22;7177;48.572;7.838;2022-08-01T04:28:39;19.00;99.90
14192;DHT22;7177;48.572;7.838;2022-08-01T04:33:34;19.00;99.90
14192;DHT22;7177;48.572;7.838;2022-08-01T04:36:03;19.00;99.90
14192;DHT22;7177;48.572;7.838;2022-08-01T04:38:32;19.00;99.90
14192;DHT22;7177;48.572;7.838;2022-08-01T04:40:58;19.10;99.90
14192;DHT22;7177;48.572;7.838;2022-08-01T04:43:26;19.10;99.90
14192;DHT22;7177;48.572;7.838;2022-08-01T04:45:52;19.10;99.90
14192;DHT22;7177;48.572;7.838;2022-08-01T04:48:18;19.10;99.90
14192;DHT22;7177;48.572;7.838;2022-08-01T04:50:45;19.10;99.90
14192;DHT22;7177;48.572;7.838;2022-08-01T04:53:15;19.20;99.90
14192;DHT22;7177;48.572;7.838;2022-08-01T04:55:42;19.20;99.90
14192;DHT22;7177;48.572;7.838;2022-08-01T04:58:10;19.30;99.90
14192;DHT22;7177;48.572;7.838;2022-08-01T05:00:35;19.30;99.90
14192;DHT22;7177;48.572;7.838;2022-08-01T05:03:01;19.40;99.90
14192;DHT22;7177;48.572;7.838;2022-08-01T05:05:27;19.50;99.90
14192;DHT22;7177;48.572;7.838;2022-08-01T05:07:52;19.70;99.90
14192;DHT22;7177;48.572;7.838;2022-08-01T05:10:18;19.80;99.90
14192;DHT22;7177;48.572;7.838;2022-08-01T05:12:43;19.90;99.90
14192;DHT22;7177;48.572;7.838;2022-08-01T05:15:09;20.10;99.90
14192;DHT22;7177;48.572;7.838;2022-08-01T05:17:34;20.30;99.90
14192;DHT22;7177;48.572;7.838;2022-08-01T05:20:00;20.50;99.90
14192;DHT22;7177;48.572;7.838;2022-08-01T05:22:26;20.70;99.90
14192;DHT22;7177;48.572;7.838;2022-08-01T05:24:52;20.80;99.90
14192;DHT22;7177;48.572;7.838;2022-08-01T05:27:18;20.70;99.90
14192;DHT22;7177;48.572;7.838;2022-08-01T05:29:43;20.80;99.90
14192;DHT22;7177;48.572;7.838;2022-08-01T05:32:09;20.90;99.90
14192;DHT22;7177;48.572;7.838;2022-08-01T05:34:35;20.90;99.90
14192;DHT22;7177;48.572;7.838;2022-08-01T05:37:00;20.90;99.90
14192;DHT22;7177;48.572;7.838;2022-08-01T05:39:26;21.00;99.90
14192;DHT22;7177;48.572;7.838;2022-08-01T05:41:52;21.10;99.90
14192;DHT22;7177;48.572;7.838;2022-08-01T05:44:17;21.30;99.90
14192;DHT22;7177;48.572;7.838;2022-08-01T05:46:43;21.40;99.90
14192;DHT22;7177;48.572;7.838;2022-08-01T05:49:08;21.70;99.90
14192;DHT22;7177;48.572;7.838;2022-08-01T05:51:34;21.90;99.90
14192;DHT22;7177;48.572;7.838;2022-08-01T05:53:59;22.10;99.90
14192;DHT22;7177;48.572;7.838;2022-08-01T05:56:25;22.30;99.90
14192;DHT22;7177;48.572;7.838;2022-08-01T05:58:51;22.50;99.90
14192;DHT22;7177;48.572;7.838;2022-08-01T06:01:18;22.60;99.90
14192;DHT22;7177;48.572;7.838;2022-08-01T06:03:43;22.70;99.90
14192;DHT22;7177;48.572;7.838;2022-08-01T06:06:10;22.90;99.90
14192;DHT22;7177;48.572;7.838;2022-08-01T06:08:35;23.10;99.90
14192;DHT22;7177;48.572;7.838;2022-08-01T06:11:01;23.20;99.90
14192;DHT22;7177;48.572;7.838;2022-08-01T06:13:27;23.40;99.90
14192;DHT22;7177;48.572;7.838;2022-08-01T06:15:52;23.20;99.90
14192;DHT22;7177;48.572;7.838;2022-08-01T06:18:19;23.20;99.90
14192;DHT22;7177;48.572;7.838;2022-08-01T06:20:45;23.40;99.90
14192;DHT22;7177;48.572;7.838;2022-08-01T06:23:10;23.60;99.90
14192;DHT22;7177;48.572;7.838;2022-08-01T06:25:36;23.70;99.90
14192;DHT22;7177;48.572;7.838;2022-08-01T06:28:02;23.80;99.90
14192;DHT22;7177;48.572;7.838;2022-08-01T06:30:28;24.00;99.90
14192;DHT22;7177;48.572;7.838;2022-08-01T06:32:53;24.00;99.90
14192;DHT22;7177;48.572;7.838;2022-08-01T06:35:21;24.20;99.90
14192;DHT22;7177;48.572;7.838;2022-08-01T06:37:47;24.40;99.90
14192;DHT22;7177;48.572;7.838;2022-08-01T06:40:13;24.70;99.90
14192;DHT22;7177;48.572;7.838;2022-08-01T06:42:38;24.80;99.90
14192;DHT22;7177;48.572;7.838;2022-08-01T06:45:05;24.90;99.90
14192;DHT22;7177;48.572;7.838;2022-08-01T06:47:31;25.00;99.90
14192;DHT22;7177;48.572;7.838;2022-08-01T06:49:57;25.10;99.90
14192;DHT22;7177;48.572;7.838;2022-08-01T06:52:23;25.40;99.90
14192;DHT22;7177;48.572;7.838;2022-08-01T06:54:48;25.70;99.90
14192;DHT22;7177;48.572;7.838;2022-08-01T06:57:14;25.60;99.90
14192;DHT22;7177;48.572;7.838;2022-08-01T06:59:39;25.40;99.90
14192;DHT22;7177;48.572;7.838;2022-08-01T07:02:05;25.30;99.90
14192;DHT22;7177;48.572;7.838;2022-08-01T07:04:31;25.40;99.90
14192;DHT22;7177;48.572;7.838;2022-08-01T07:06:57;25.50;99.90
14192;DHT22;7177;48.572;7.838;2022-08-01T07:09:23;25.30;99.90
14192;DHT22;7177;48.572;7.838;2022-08-01T07:11:48;25.10;99.90
14192;DHT22;7177;48.572;7.838;2022-08-01T07:14:15;24.90;99.90
14192;DHT22;7177;48.572;7.838;2022-08-01T07:16:41;25.10;99.90
14192;DHT22;7177;48.572;7.838;2022-08-01T07:19:07;25.50;99.90
14192;DHT22;7177;48.572;7.838;2022-08-01T07:21:33;25.70;99.90
14192;DHT22;7177;48.572;7.838;2022-08-01T07:23:58;25.70;99.90
14192;DHT22;7177;48.572;7.838;2022-08-01T07:26:24;25.80;99.90
14192;DHT22;7177;48.572;7.838;2022-08-01T07:28:50;25.80;99.90
14192;DHT22;7177;48.572;7.838;2022-08-01T07:31:15;25.70;99.90
14192;DHT22;7177;48.572;7.838;2022-08-01T07:33:41;25.80;99.90
14192;DHT22;7177;48.572;7.838;2022-08-01T07:36:06;25.90;99.90
14192;DHT22;7177;48.572;7.838;2022-08-01T07:38:32;26.10;99.90
14192;DHT22;7177;48.572;7.838;2022-08-01T07:40:57;26.30;99.90
14192;DHT22;7177;48.572;7.838;2022-08-01T07:43:23;26.50;99.90
14192;DHT22;7177;48.572;7.838;2022-08-01T07:45:48;26.70;99.90
14192;DHT22;7177;48.572;7.838;2022-08-01T07:48:14;26.70;99.90
14192;DHT22;7177;48.572;7.838;2022-08-01T07:50:39;26.80;99.90
14192;DHT22;7177;48.572;7.838;2022-08-01T07:53:05;26.80;99.90
14192;DHT22;7177;48.572;7.838;2022-08-01T07:55:30;27.00;99.90
14192;DHT22;7177;48.572;7.838;2022-08-01T07:57:56;27.10;99.90
14192;DHT22;7177;48.572;7.838;2022-08-01T08:00:22;27.20;99.90
14192;DHT22;7177;48.572;7.838;2022-08-01T08:02:47;27.60;99.90
14192;DHT22;7177;48.572;7.838;2022-08-01T08:05:13;28.20;99.90
14192;DHT22;7177;48.572;7.838;2022-08-01T08:07:38;28.80;99.90
14192;DHT22;7177;48.572;7.838;2022-08-01T08:10:05;29.30;99.90
14192;DHT22;7177;48.572;7.838;2022-08-01T08:12:31;29.70;99.90
14192;DHT22;7177;48.572;7.838;2022-08-01T08:14:57;29.70;99.90
14192;DHT22;7177;48.572;7.838;2022-08-01T08:17:26;29.70;99.90
14192;DHT22;7177;48.572;7.838;2022-08-01T08:19:52;29.40;99.90
14192;DHT22;7177;48.572;7.838;2022-08-01T08:22:18;29.30;99.90
14192;DHT22;7177;48.572;7.838;2022-08-01T08:24:43;29.70;99.90
14192;DHT22;7177;48.572;7.838;2022-08-01T08:27:09;29.80;99.30
14192;DHT22;7177;48.572;7.838;2022-08-01T08:29:35;30.20;99.40
14192;DHT22;7177;48.572;7.838;2022-08-01T08:32:01;30.60;97.50
14192;DHT22;7177;48.572;7.838;2022-08-01T08:34:27;30.60;97.00
14192;DHT22;7177;48.572;7.838;2022-08-01T08:36:54;30.80;97.00
14192;DHT22;7177;48.572;7.838;2022-08-01T08:39:21;31.00;95.80
14192;DHT22;7177;48.572;7.838;2022-08-01T08:41:47;31.30;95.40
14192;DHT22;7177;48.572;7.838;2022-08-01T08:44:13;31.60;94.90
14192;DHT22;7177;48.572;7.838;2022-08-01T08:46:50;32.00;94.70
14192;DHT22;7177;48.572;7.838;2022-08-01T08:49:26;32.30;94.10
14192;DHT22;7177;48.572;7.838;2022-08-01T08:51:53;32.10;93.20
14192;DHT22;7177;48.572;7.838;2022-08-01T08:54:24;31.70;93.50
14192;DHT22;7177;48.572;7.838;2022-08-01T08:56:51;32.00;92.50
14192;DHT22;7177;48.572;7.838;2022-08-01T08:59:17;32.20;92.40
14192;DHT22;7177;48.572;7.838;2022-08-01T09:01:43;32.70;92.40
14192;DHT22;7177;48.572;7.838;2022-08-01T09:04:10;33.00;91.00
14192;DHT22;7177;48.572;7.838;2022-08-01T09:06:36;33.10;90.20
14192;DHT22;7177;48.572;7.838;2022-08-01T09:09:02;32.50;89.90
14192;DHT22;7177;48.572;7.838;2022-08-01T09:11:27;31.60;90.80
14192;DHT22;7177;48.572;7.838;2022-08-01T09:16:28;31.50;91.30
14192;DHT22;7177;48.572;7.838;2022-08-01T09:19:16;31.80;90.90
14192;DHT22;7177;48.572;7.838;2022-08-01T09:21:57;31.80;90.40
14192;DHT22;7177;48.572;7.838;2022-08-01T09:24:25;31.40;90.40
14192;DHT22;7177;48.572;7.838;2022-08-01T09:26:51;31.30;90.50
14192;DHT22;7177;48.572;7.838;2022-08-01T09:29:21;31.20;90.70
14192;DHT22;7177;48.572;7.838;2022-08-01T09:31:47;31.00;90.80
14192;DHT22;7177;48.572;7.838;2022-08-01T09:34:15;31.00;90.80
14192;DHT22;7177;48.572;7.838;2022-08-01T09:39:17;31.80;90.70
14192;DHT22;7177;48.572;7.838;2022-08-01T09:41:43;32.50;88.60
14192;DHT22;7177;48.572;7.838;2022-08-01T09:44:09;32.90;87.80
14192;DHT22;7177;48.572;7.838;2022-08-01T09:46:34;33.20;85.70
14192;DHT22;7177;48.572;7.838;2022-08-01T09:49:03;32.90;86.80
14192;DHT22;7177;48.572;7.838;2022-08-01T09:51:31;32.70;85.70
14192;DHT22;7177;48.572;7.838;2022-08-01T09:53:57;32.70;86.00
14192;DHT22;7177;48.572;7.838;2022-08-01T09:56:23;32.90;86.10
14192;DHT22;7177;48.572;7.838;2022-08-01T09:58:59;33.50;85.30
14192;DHT22;7177;48.572;7.838;2022-08-01T10:01:25;33.70;84.60
14192;DHT22;7177;48.572;7.838;2022-08-01T10:04:10;33.30;84.60
14192;DHT22;7177;48.572;7.838;2022-08-01T10:06:36;33.20;85.50
14192;DHT22;7177;48.572;7.838;2022-08-01T10:09:02;32.70;83.50
14192;DHT22;7177;48.572;7.838;2022-08-01T10:11:28;32.70;83.20
14192;DHT22;7177;48.572;7.838;2022-08-01T10:13:56;33.20;83.20
14192;DHT22;7177;48.572;7.838;2022-08-01T10:16:24;34.10;81.60
14192;DHT22;7177;48.572;7.838;2022-08-01T10:18:51;34.90;77.20
14192;DHT22;7177;48.572;7.838;2022-08-01T10:21:18;34.50;76.90
14192;DHT22;7177;48.572;7.838;2022-08-01T10:23:45;34.40;76.10
14192;DHT22;7177;48.572;7.838;2022-08-01T10:26:12;34.20;76.80
14192;DHT22;7177;48.572;7.838;2022-08-01T10:28:38;34.60;76.20
14192;DHT22;7177;48.572;7.838;2022-08-01T10:31:04;34.60;76.20
14192;DHT22;7177;48.572;7.838;2022-08-01T10:33:30;34.80;75.10
14192;DHT22;7177;48.572;7.838;2022-08-01T10:35:57;35.30;74.40
14192;DHT22;7177;48.572;7.838;2022-08-01T10:38:23;36.10;75.20
14192;DHT22;7177;48.572;7.838;2022-08-01T10:40:49;35.80;73.90
14192;DHT22;7177;48.572;7.838;2022-08-01T10:43:16;35.50;74.50
14192;DHT22;7177;48.572;7.838;2022-08-01T10:45:43;35.00;75.90
14192;DHT22;7177;48.572;7.838;2022-08-01T10:48:09;34.20;77.10
14192;DHT22;7177;48.572;7.838;2022-08-01T10:50:41;33.50;77.40
14192;DHT22;7177;48.572;7.838;2022-08-01T10:53:14;33.10;78.30
14192;DHT22;7177;48.572;7.838;2022-08-01T11:01:26;32.10;80.20
14192;DHT22;7177;48.572;7.838;2022-08-01T11:04:00;31.90;81.50
14192;DHT22;7177;48.572;7.838;2022-08-01T11:09:02;32.80;78.70
14192;DHT22;7177;48.572;7.838;2022-08-01T11:11:28;32.40;79.60
14192;DHT22;7177;48.572;7.838;2022-08-01T11:16:31;31.60;80.60
14192;DHT22;7177;48.572;7.838;2022-08-01T11:18:57;31.10;81.80
14192;DHT22;7177;48.572;7.838;2022-08-01T11:27:32;31.70;84.60
14192;DHT22;7177;48.572;7.838;2022-08-01T11:32:46;31.70;84.40
14192;DHT22;7177;48.572;7.838;2022-08-01T11:35:12;31.20;86.10
14192;DHT22;7177;48.572;7.838;2022-08-01T11:37:38;30.90;86.90
14192;DHT22;7177;48.572;7.838;2022-08-01T11:40:24;30.90;87.20
14192;DHT22;7177;48.572;7.838;2022-08-01T11:45:53;32.30;85.30
14192;DHT22;7177;48.572;7.838;2022-08-01T11:48:26;32.80;83.00
14192;DHT22;7177;48.572;7.838;2022-08-01T11:50:53;32.50;82.80
14192;DHT22;7177;48.572;7.838;2022-08-01T11:53:19;32.30;83.30
14192;DHT22;7177;48.572;7.838;2022-08-01T11:55:50;32.90;83.30
14192;DHT22;7177;48.572;7.838;2022-08-01T11:58:24;33.60;81.40
14192;DHT22;7177;48.572;7.838;2022-08-01T12:00:53;34.40;79.80
14192;DHT22;7177;48.572;7.838;2022-08-01T12:03:26;35.40;76.00
14192;DHT22;7177;48.572;7.838;2022-08-01T12:05:53;35.90;73.50
14192;DHT22;7177;48.572;7.838;2022-08-01T12:08:29;36.30;73.60
14192;DHT22;7177;48.572;7.838;2022-08-01T12:10:55;36.20;71.60
14192;DHT22;7177;48.572;7.838;2022-08-01T12:13:21;35.20;72.90
14192;DHT22;7177;48.572;7.838;2022-08-01T12:15:47;34.00;75.50
14192;DHT22;7177;48.572;7.838;2022-08-01T12:18:13;33.30;77.60
14192;DHT22;7177;48.572;7.838;2022-08-01T12:20:41;32.60;78.50
14192;DHT22;7177;48.572;7.838;2022-08-01T12:23:09;32.30;79.80
14192;DHT22;7177;48.572;7.838;2022-08-01T12:25:37;32.40;78.50
14192;DHT22;7177;48.572;7.838;2022-08-01T12:28:07;32.70;77.20
14192;DHT22;7177;48.572;7.838;2022-08-01T12:30:34;33.10;76.70
14192;DHT22;7177;48.572;7.838;2022-08-01T12:33:05;33.70;76.50
14192;DHT22;7177;48.572;7.838;2022-08-01T12:35:32;34.70;74.90
14192;DHT22;7177;48.572;7.838;2022-08-01T12:38:04;35.40;72.20
14192;DHT22;7177;48.572;7.838;2022-08-01T12:40:41;35.70;72.00
14192;DHT22;7177;48.572;7.838;2022-08-01T12:43:08;35.60;71.20
14192;DHT22;7177;48.572;7.838;2022-08-01T12:45:40;35.30;69.50
14192;DHT22;7177;48.572;7.838;2022-08-01T12:48:09;34.40;72.40
14192;DHT22;7177;48.572;7.838;2022-08-01T12:50:38;34.00;72.30
14192;DHT22;7177;48.572;7.838;2022-08-01T12:53:04;33.50;73.30
14192;DHT22;7177;48.572;7.838;2022-08-01T12:55:30;33.10;74.30
14192;DHT22;7177;48.572;7.838;2022-08-01T12:58:06;32.90;75.30
14192;DHT22;7177;48.572;7.838;2022-08-01T13:00:32;33.30;74.10
14192;DHT22;7177;48.572;7.838;2022-08-01T13:03:06;34.40;73.90
14192;DHT22;7177;48.572;7.838;2022-08-01T13:08:16;35.40;70.00
14192;DHT22;7177;48.572;7.838;2022-08-01T13:10:42;35.60;69.30
14192;DHT22;7177;48.572;7.838;2022-08-01T13:13:09;35.60;67.40
14192;DHT22;7177;48.572;7.838;2022-08-01T13:15:36;35.60;69.10
14192;DHT22;7177;48.572;7.838;2022-08-01T13:18:25;35.40;68.10
14192;DHT22;7177;48.572;7.838;2022-08-01T13:21:11;34.80;68.90
14192;DHT22;7177;48.572;7.838;2022-08-01T13:23:41;34.00;70.40
14192;DHT22;7177;48.572;7.838;2022-08-01T13:26:07;33.40;71.50
14192;DHT22;7177;48.572;7.838;2022-08-01T13:28:34;32.70;72.60
14192;DHT22;7177;48.572;7.838;2022-08-01T13:31:08;32.30;74.30
14192;DHT22;7177;48.572;7.838;2022-08-01T13:33:45;32.00;74.50
14192;DHT22;7177;48.572;7.838;2022-08-01T13:36:12;31.60;75.90
14192;DHT22;7177;48.572;7.838;2022-08-01T13:38:39;32.00;77.20
14192;DHT22;7177;48.572;7.838;2022-08-01T13:41:23;32.60;75.10
14192;DHT22;7177;48.572;7.838;2022-08-01T13:43:48;32.60;73.80
14192;DHT22;7177;48.572;7.838;2022-08-01T13:46:14;32.50;74.60
14192;DHT22;7177;48.572;7.838;2022-08-01T13:48:39;32.40;74.60
14192;DHT22;7177;48.572;7.838;2022-08-01T13:51:05;32.20;75.70
14192;DHT22;7177;48.572;7.838;2022-08-01T13:53:30;31.90;75.60
14192;DHT22;7177;48.572;7.838;2022-08-01T13:55:56;31.60;76.60
14192;DHT22;7177;48.572;7.838;2022-08-01T13:58:22;31.10;76.70
14192;DHT22;7177;48.572;7.838;2022-08-01T14:00:47;31.00;77.40
14192;DHT22;7177;48.572;7.838;2022-08-01T14:03:13;30.90;79.30
14192;DHT22;7177;48.572;7.838;2022-08-01T14:05:39;30.70;78.40
14192;DHT22;7177;48.572;7.838;2022-08-01T14:08:05;30.60;78.90
14192;DHT22;7177;48.572;7.838;2022-08-01T14:10:31;30.60;79.00
14192;DHT22;7177;48.572;7.838;2022-08-01T14:12:57;30.60;78.00
14192;DHT22;7177;48.572;7.838;2022-08-01T14:15:23;30.70;79.00
14192;DHT22;7177;48.572;7.838;2022-08-01T14:17:49;30.90;78.90
14192;DHT22;7177;48.572;7.838;2022-08-01T14:20:14;30.90;79.10
14192;DHT22;7177;48.572;7.838;2022-08-01T14:22:40;31.10;79.50
14192;DHT22;7177;48.572;7.838;2022-08-01T14:25:06;31.10;78.70
14192;DHT22;7177;48.572;7.838;2022-08-01T14:27:33;31.20;77.70
14192;DHT22;7177;48.572;7.838;2022-08-01T14:30:02;31.60;77.80
14192;DHT22;7177;48.572;7.838;2022-08-01T14:32:28;32.40;75.80
14192;DHT22;7177;48.572;7.838;2022-08-01T14:34:53;33.10;75.50
14192;DHT22;7177;48.572;7.838;2022-08-01T14:37:19;32.90;74.30
14192;DHT22;7177;48.572;7.838;2022-08-01T14:39:44;32.50;75.00
14192;DHT22;7177;48.572;7.838;2022-08-01T14:42:10;32.20;75.00
14192;DHT22;7177;48.572;7.838;2022-08-01T14:44:35;31.90;75.80
14192;DHT22;7177;48.572;7.838;2022-08-01T14:47:01;31.60;76.90
14192;DHT22;7177;48.572;7.838;2022-08-01T14:49:26;31.30;77.80
14192;DHT22;7177;48.572;7.838;2022-08-01T14:51:52;31.00;77.10
14192;DHT22;7177;48.572;7.838;2022-08-01T14:54:17;30.90;77.10
14192;DHT22;7177;48.572;7.838;2022-08-01T14:56:44;30.80;76.30
14192;DHT22;7177;48.572;7.838;2022-08-01T14:59:09;30.80;76.60
14192;DHT22;7177;48.572;7.838;2022-08-01T15:01:35;30.90;77.50
14192;DHT22;7177;48.572;7.838;2022-08-01T15:04:00;30.90;76.70
14192;DHT22;7177;48.572;7.838;2022-08-01T15:06:26;31.00;76.00
14192;DHT22;7177;48.572;7.838;2022-08-01T15:08:52;30.80;77.00
14192;DHT22;7177;48.572;7.838;2022-08-01T15:11:17;30.80;77.10
14192;DHT22;7177;48.572;7.838;2022-08-01T15:13:43;30.60;77.10
14192;DHT22;7177;48.572;7.838;2022-08-01T15:16:09;30.40;77.40
14192;DHT22;7177;48.572;7.838;2022-08-01T15:18:34;30.10;77.60
14192;DHT22;7177;48.572;7.838;2022-08-01T15:21:00;30.00;78.90
14192;DHT22;7177;48.572;7.838;2022-08-01T15:23:25;29.90;79.30
14192;DHT22;7177;48.572;7.838;2022-08-01T15:25:51;30.10;79.60
14192;DHT22;7177;48.572;7.838;2022-08-01T15:28:16;30.20;80.70
14192;DHT22;7177;48.572;7.838;2022-08-01T15:30:42;30.10;80.50
14192;DHT22;7177;48.572;7.838;2022-08-01T15:33:07;30.00;80.30
14192;DHT22;7177;48.572;7.838;2022-08-01T15:35:33;30.10;79.70
14192;DHT22;7177;48.572;7.838;2022-08-01T15:37:59;30.20;79.50
14192;DHT22;7177;48.572;7.838;2022-08-01T15:40:24;30.40;79.50
14192;DHT22;7177;48.572;7.838;2022-08-01T15:42:51;30.30;79.00
14192;DHT22;7177;48.572;7.838;2022-08-01T15:45:17;30.30;79.70
14192;DHT22;7177;48.572;7.838;2022-08-01T15:47:44;30.10;80.10
14192;DHT22;7177;48.572;7.838;2022-08-01T15:50:10;29.90;80.50
14192;DHT22;7177;48.572;7.838;2022-08-01T15:52:35;29.80;81.50
14192;DHT22;7177;48.572;7.838;2022-08-01T15:55:01;29.50;82.50
14192;DHT22;7177;48.572;7.838;2022-08-01T15:57:27;29.10;83.10
14192;DHT22;7177;48.572;7.838;2022-08-01T15:59:53;29.10;84.50
14192;DHT22;7177;48.572;7.838;2022-08-01T16:02:18;28.90;85.70
14192;DHT22;7177;48.572;7.838;2022-08-01T16:04:44;28.80;85.70
14192;DHT22;7177;48.572;7.838;2022-08-01T16:07:10;28.80;85.60
14192;DHT22;7177;48.572;7.838;2022-08-01T16:09:35;28.80;86.00
14192;DHT22;7177;48.572;7.838;2022-08-01T16:12:01;28.80;85.80
14192;DHT22;7177;48.572;7.838;2022-08-01T16:14:27;28.90;85.20
14192;DHT22;7177;48.572;7.838;2022-08-01T16:16:52;28.90;85.20
14192;DHT22;7177;48.572;7.838;2022-08-01T16:19:18;28.80;85.60
14192;DHT22;7177;48.572;7.838;2022-08-01T16:21:43;28.90;85.20
14192;DHT22;7177;48.572;7.838;2022-08-01T16:24:09;28.70;85.70
14192;DHT22;7177;48.572;7.838;2022-08-01T16:26:34;28.70;86.10
14192;DHT22;7177;48.572;7.838;2022-08-01T16:29:00;26.20;85.00